Time;durP1;ratioP1;P1;durP2;ratioP2;P2;SDS_P1;SDS_P2;PMS_P1;PMS_P2;Temp;Humidity;BMP_temperature;BMP_pressure;BME280_temperature;BME280_humidity;BME280_pressure;Samples;Min_cycle;Max_cycle;Signal;HPM_P1;HPM_P2
2022/05/07 00:03:13;;;;;;;10.73;5.45;;;;;;;;;;4936080;29;20399;-76
2022/05/07 00:06:06;;;;;;;10.85;6.05;;;;;;;;;;4935430;29;20429;-76
2022/05/07 00:08:34;;;;;;;10.85;6.07;;;;;;;;;;4936395;29;20075;-76
2022/05/07 00:11:01;;;;;;;10.15;5.53;;;;;;;;;;4935792;29;20513;-75
2022/05/07 00:13:40;;;;;;;7.97;5.47;;;;;;;;;;4935659;29;20480;-76
2022/05/07 00:18:54;;;;;;;9.70;5.57;;;;;;;;;;4935533;29;20406;-76
2022/05/07 00:21:28;;;;;;;9.35;5.50;;;;;;;;;;4935701;29;20122;-76
2022/05/07 00:23:57;;;;;;;14.38;5.70;;;;;;;;;;4935886;29;20048;-76
2022/05/07 00:26:31;;;;;;;7.93;6.03;;;;;;;;;;4918556;29;20032;-76
2022/05/07 00:28:59;;;;;;;10.77;5.80;;;;;;;;;;4935849;29;20494;-76
2022/05/07 00:31:27;;;;;;;11.85;5.78;;;;;;;;;;4935570;29;20091;-76
2022/05/07 00:34:21;;;;;;;11.77;5.72;;;;;;;;;;4935905;29;20052;-76
2022/05/07 00:36:52;;;;;;;10.43;5.90;;;;;;;;;;4937154;29;20076;-76
2022/05/07 00:39:20;;;;;;;9.20;5.78;;;;;;;;;;4939517;29;20043;-75
2022/05/07 00:41:48;;;;;;;9.68;5.55;;;;;;;;;;4921921;29;20122;-76
2022/05/07 00:44:17;;;;;;;10.32;5.93;;;;;;;;;;4938806;29;20071;-75
2022/05/07 00:46:49;;;;;;;10.35;5.70;;;;;;;;;;4921809;29;20043;-76
2022/05/07 00:49:21;;;;;;;8.88;5.80;;;;;;;;;;4938499;29;20055;-76
2022/05/07 00:51:53;;;;;;;11.57;6.22;;;;;;;;;;4938889;29;20044;-76
2022/05/07 00:54:23;;;;;;;9.35;6.25;;;;;;;;;;4938563;29;20052;-76
2022/05/07 00:56:58;;;;;;;10.45;6.97;;;;;;;;;;4921924;29;20075;-76
2022/05/07 00:59:29;;;;;;;11.88;6.25;;;;;;;;;;4938674;29;20063;-76
2022/05/07 01:01:59;;;;;;;9.48;5.88;;;;;;;;;;4938801;29;20067;-76
2022/05/07 01:04:28;;;;;;;11.60;6.13;;;;;;;;;;4938314;29;20039;-76
2022/05/07 01:06:57;;;;;;;10.30;6.18;;;;;;;;;;4921199;29;20048;-76
2022/05/07 01:09:26;;;;;;;9.10;5.68;;;;;;;;;;4921458;29;20040;-76
2022/05/07 01:11:59;;;;;;;9.35;5.70;;;;;;;;;;4938786;29;20509;-76
2022/05/07 01:14:27;;;;;;;11.02;6.20;;;;;;;;;;4920982;29;20451;-76
2022/05/07 01:16:56;;;;;;;10.18;6.00;;;;;;;;;;4918049;29;20044;-76
2022/05/07 01:19:23;;;;;;;11.90;5.90;;;;;;;;;;4919186;29;20068;-76
2022/05/07 01:21:54;;;;;;;9.52;5.68;;;;;;;;;;4919007;29;20044;-76
2022/05/07 01:24:24;;;;;;;10.75;6.70;;;;;;;;;;4917971;29;20092;-76
2022/05/07 01:26:57;;;;;;;8.23;5.63;;;;;;;;;;4917906;29;20498;-76
2022/05/07 01:29:25;;;;;;;8.75;6.22;;;;;;;;;;4917785;29;20418;-76
2022/05/07 01:31:59;;;;;;;14.15;6.28;;;;;;;;;;4918004;29;20056;-76
2022/05/07 01:34:30;;;;;;;14.48;6.22;;;;;;;;;;4917650;29;20052;-76
2022/05/07 01:37:00;;;;;;;13.52;6.70;;;;;;;;;;4917767;29;20048;-76
2022/05/07 01:39:30;;;;;;;8.88;6.03;;;;;;;;;;4917861;29;20135;-76
2022/05/07 01:42:08;;;;;;;9.73;5.90;;;;;;;;;;4917946;29;20048;-75
2022/05/07 01:44:40;;;;;;;14.02;6.55;;;;;;;;;;4918688;29;20040;-76
2022/05/07 01:50:48;;;;;;;10.40;6.25;;;;;;;;;;4918426;29;20491;-76
2022/05/07 01:53:22;;;;;;;9.93;6.63;;;;;;;;;;4916996;29;20054;-76
2022/05/07 01:55:57;;;;;;;10.95;6.88;;;;;;;;;;4919019;29;20403;-76
2022/05/07 01:58:41;;;;;;;10.65;6.90;;;;;;;;;;4917089;29;20052;-76
2022/05/07 02:01:11;;;;;;;10.73;6.93;;;;;;;;;;4917401;29;20515;-76
2022/05/07 02:03:42;;;;;;;11.27;6.90;;;;;;;;;;4917465;29;20111;-76
2022/05/07 02:06:13;;;;;;;10.98;7.07;;;;;;;;;;4916975;29;20072;-76
2022/05/07 02:08:45;;;;;;;12.38;7.63;;;;;;;;;;4917365;29;20445;-76
2022/05/07 02:11:26;;;;;;;10.00;7.00;;;;;;;;;;4917335;29;20050;-76
2022/05/07 02:13:54;;;;;;;;;;;;;;;;;;4917703;29;20048;-75
2022/05/07 02:16:22;;;;;;;12.35;7.57;;;;;;;;;;4916938;29;19930;-76
2022/05/07 02:19:15;;;;;;;11.75;6.82;;;;;;;;;;4917008;29;20055;-76
2022/05/07 02:21:44;;;;;;;11.60;7.18;;;;;;;;;;4918452;29;20055;-76
2022/05/07 02:24:13;;;;;;;12.50;7.40;;;;;;;;;;4918449;29;20056;-76
2022/05/07 02:26:50;;;;;;;13.30;7.10;;;;;;;;;;4918081;29;20088;-76
2022/05/07 02:29:18;;;;;;;12.52;7.70;;;;;;;;;;4916735;29;20040;-76
2022/05/07 02:32:05;;;;;;;12.05;7.15;;;;;;;;;;4917030;29;20040;-75
2022/05/07 02:34:42;;;;;;;15.45;7.53;;;;;;;;;;4916469;29;20549;-76
2022/05/07 02:37:31;;;;;;;10.45;6.97;;;;;;;;;;4916783;29;20048;-76
2022/05/07 02:40:24;;;;;;;12.40;7.72;;;;;;;;;;4916756;29;20052;-76
2022/05/07 02:43:25;;;;;;;11.20;7.50;;;;;;;;;;4916715;29;20104;-76
2022/05/07 02:45:53;;;;;;;16.23;8.77;;;;;;;;;;4916183;29;20054;-76
2022/05/07 02:48:35;;;;;;;15.50;9.20;;;;;;;;;;4916639;29;20044;-76
2022/05/07 02:51:32;;;;;;;11.23;8.20;;;;;;;;;;4916590;29;20088;-76
2022/05/07 02:54:02;;;;;;;13.90;8.20;;;;;;;;;;4916344;29;20044;-76
2022/05/07 02:56:36;;;;;;;10.05;7.20;;;;;;;;;;4917685;29;20040;-76
2022/05/07 02:59:04;;;;;;;17.65;8.32;;;;;;;;;;4916514;29;20521;-76
2022/05/07 03:01:36;;;;;;;14.95;8.10;;;;;;;;;;4916389;29;20056;-76
2022/05/07 03:04:04;;;;;;;12.35;8.40;;;;;;;;;;4916400;29;20104;-75
2022/05/07 03:06:38;;;;;;;11.48;7.82;;;;;;;;;;4916232;29;20050;-76
2022/05/07 03:09:07;;;;;;;10.80;7.50;;;;;;;;;;4916790;29;20519;-76
2022/05/07 03:11:35;;;;;;;13.82;7.93;;;;;;;;;;4916027;29;20099;-76
2022/05/07 03:14:04;;;;;;;11.02;8.15;;;;;;;;;;4916263;29;20071;-76
2022/05/07 03:16:32;;;;;;;12.18;7.70;;;;;;;;;;4917546;29;20472;-76
2022/05/07 03:19:06;;;;;;;10.35;8.25;;;;;;;;;;4903771;29;20084;-76
2022/05/07 03:21:34;;;;;;;12.00;7.50;;;;;;;;;;4918994;29;20048;-76
2022/05/07 03:24:06;;;;;;;13.25;9.68;;;;;;;;;;4936784;29;20063;-76
2022/05/07 03:26:38;;;;;;;15.18;9.07;;;;;;;;;;4919487;29;20066;-76
2022/05/07 03:29:07;;;;;;;12.65;8.35;;;;;;;;;;4919085;29;20075;-76
2022/05/07 03:31:39;;;;;;;13.18;7.78;;;;;;;;;;4919293;29;20044;-76
2022/05/07 03:34:10;;;;;;;14.10;8.82;;;;;;;;;;4918954;29;20134;-76
2022/05/07 03:36:47;;;;;;;13.63;8.93;;;;;;;;;;4936391;29;20490;-76
2022/05/07 03:39:44;;;;;;;15.23;8.63;;;;;;;;;;4919104;29;20055;-76
2022/05/07 03:42:42;;;;;;;15.32;9.35;;;;;;;;;;4919121;29;20142;-76
2022/05/07 03:45:35;;;;;;;15.75;9.40;;;;;;;;;;4936014;29;20043;-76
2022/05/07 03:48:29;;;;;;;12.82;8.90;;;;;;;;;;4919010;29;20044;-75
2022/05/07 03:50:58;;;;;;;21.05;9.32;;;;;;;;;;4919026;29;20569;-76
2022/05/07 03:53:30;;;;;;;14.15;8.98;;;;;;;;;;4918965;29;20052;-76
2022/05/07 03:56:18;;;;;;;15.25;9.20;;;;;;;;;;4918740;29;20134;-76
2022/05/07 03:58:49;;;;;;;15.63;8.95;;;;;;;;;;4935971;29;20070;-76
2022/05/07 04:01:34;;;;;;;12.13;8.25;;;;;;;;;;4919050;29;20052;-76
2022/05/07 04:04:02;;;;;;;13.10;9.15;;;;;;;;;;4918342;29;20111;-76
2022/05/07 04:06:31;;;;;;;13.10;8.38;;;;;;;;;;4918875;29;20409;-76
2022/05/07 04:09:03;;;;;;;11.90;8.57;;;;;;;;;;4919206;29;20051;-75
2022/05/07 04:11:37;;;;;;;15.05;9.20;;;;;;;;;;4919862;29;20466;-76
2022/05/07 04:14:06;;;;;;;14.07;8.50;;;;;;;;;;4922183;29;20063;-75
2022/05/07 04:16:34;;;;;;;12.85;8.63;;;;;;;;;;4921690;29;20055;-76
2022/05/07 04:19:16;;;;;;;15.82;8.60;;;;;;;;;;4922374;29;20051;-77
2022/05/07 04:21:48;;;;;;;14.30;9.13;;;;;;;;;;4921778;29;20047;-82
2022/05/07 04:24:26;;;;;;;13.80;8.93;;;;;;;;;;4938880;29;20290;-72
2022/05/07 04:27:00;;;;;;;13.95;8.30;;;;;;;;;;4921901;29;20039;-72
2022/05/07 04:29:30;;;;;;;17.10;8.88;;;;;;;;;;4922013;29;20048;-72
2022/05/07 04:32:07;;;;;;;12.38;8.77;;;;;;;;;;4921871;29;20426;-72
2022/05/07 04:34:39;;;;;;;12.30;8.52;;;;;;;;;;4939398;29;20114;-72
2022/05/07 04:37:12;;;;;;;19.73;11.73;;;;;;;;;;4921982;29;20134;-73
2022/05/07 04:39:46;;;;;;;15.63;11.15;;;;;;;;;;4938911;29;20052;-73
2022/05/07 04:42:16;;;;;;;13.55;9.73;;;;;;;;;;4921745;29;20051;-74
2022/05/07 04:45:05;;;;;;;13.13;10.05;;;;;;;;;;4937749;29;20107;-74
2022/05/07 04:47:59;;;;;;;12.25;8.80;;;;;;;;;;4916620;29;20059;-73
2022/05/07 04:50:34;;;;;;;18.23;9.88;;;;;;;;;;4937562;29;20392;-73
2022/05/07 04:53:26;;;;;;;14.13;9.20;;;;;;;;;;4922056;29;20461;-74
2022/05/07 04:56:01;;;;;;;16.52;10.93;;;;;;;;;;4921452;29;20103;-73
2022/05/07 04:58:34;;;;;;;16.38;10.63;;;;;;;;;;4921630;29;20043;-74
2022/05/07 05:01:03;;;;;;;13.73;9.30;;;;;;;;;;4921083;29;20062;-74
2022/05/07 05:03:37;;;;;;;12.65;9.23;;;;;;;;;;4937229;29;20050;-76
2022/05/07 05:06:14;;;;;;;10.30;7.90;;;;;;;;;;4922017;29;20047;-76
2022/05/07 05:08:59;;;;;;;12.38;8.95;;;;;;;;;;4921526;29;20044;-75
2022/05/07 05:11:28;;;;;;;11.70;7.68;;;;;;;;;;4921047;29;20075;-76
2022/05/07 05:13:58;;;;;;;11.43;8.32;;;;;;;;;;4921214;29;20067;-76
2022/05/07 05:16:26;;;;;;;14.48;7.90;;;;;;;;;;4920157;29;20071;-76
2022/05/07 05:19:03;;;;;;;15.68;9.88;;;;;;;;;;4937910;29;20562;-76
2022/05/07 05:21:31;;;;;;;16.85;8.98;;;;;;;;;;4920377;29;20056;-74
2022/05/07 05:24:07;;;;;;;15.23;9.38;;;;;;;;;;4921179;29;20460;-83
2022/05/07 05:26:49;;;;;;;15.73;9.65;;;;;;;;;;4921034;29;20050;-77
2022/05/07 05:29:23;;;;;;;11.80;8.25;;;;;;;;;;4938479;29;20074;-76
2022/05/07 05:39:30;;;;;;;14.18;8.13;;;;;;;;;;4919576;29;20064;-73
2022/05/07 05:42:24;;;;;;;13.32;8.40;;;;;;;;;;4920892;29;20044;-73
2022/05/07 05:44:53;;;;;;;12.55;8.10;;;;;;;;;;4937651;29;20070;-74
2022/05/07 05:47:25;;;;;;;15.60;9.15;;;;;;;;;;4920214;29;20526;-74
2022/05/07 05:49:57;;;;;;;14.98;9.20;;;;;;;;;;4938113;29;20486;-76
2022/05/07 05:52:36;;;;;;;13.70;8.32;;;;;;;;;;4920863;29;20051;-77
2022/05/07 05:55:29;;;;;;;13.88;9.05;;;;;;;;;;4920819;29;20046;-76
2022/05/07 05:58:01;;;;;;;12.25;8.80;;;;;;;;;;4920580;29;20055;-77
2022/05/07 06:00:29;;;;;;;16.58;9.80;;;;;;;;;;4920593;29;20047;-77
2022/05/07 06:02:59;;;;;;;11.32;8.63;;;;;;;;;;4936032;29;20054;-76
2022/05/07 06:05:33;;;;;;;14.00;9.02;;;;;;;;;;4920812;29;20392;-77
2022/05/07 06:08:01;;;;;;;12.80;9.52;;;;;;;;;;4920481;29;20096;-76
2022/05/07 06:11:02;;;;;;;11.02;7.93;;;;;;;;;;4920302;29;20043;-77
2022/05/07 06:13:34;;;;;;;11.57;7.70;;;;;;;;;;4920235;29;20507;-79
2022/05/07 06:16:08;;;;;;;10.70;6.60;;;;;;;;;;4937738;29;20087;-74
2022/05/07 06:18:36;;;;;;;14.47;9.37;;;;;;;;;;4937268;29;20059;-75
2022/05/07 06:21:33;;;;;;;11.52;7.18;;;;;;;;;;4920149;29;20468;-75
2022/05/07 06:29:42;;;;;;;9.10;6.60;;;;;;;;;;4919916;29;20131;-76
2022/05/07 06:32:14;;;;;;;9.97;6.50;;;;;;;;;;4919979;29;20055;-76
2022/05/07 06:34:42;;;;;;;6.97;5.70;;;;;;;;;;4914714;29;20464;-76
2022/05/07 06:37:10;;;;;;;12.02;6.35;;;;;;;;;;4934055;29;20046;-76
2022/05/07 06:39:47;;;;;;;10.77;6.60;;;;;;;;;;4936321;29;20054;-77
2022/05/07 06:42:18;;;;;;;9.38;5.70;;;;;;;;;;4936393;29;20064;-77
2022/05/07 06:45:00;;;;;;;8.88;6.13;;;;;;;;;;4935133;29;20091;-77
2022/05/07 06:47:33;;;;;;;9.43;6.30;;;;;;;;;;4934581;29;20039;-76
2022/05/07 06:50:01;;;;;;;10.43;6.30;;;;;;;;;;4919064;29;20036;-76
2022/05/07 06:52:30;;;;;;;13.75;10.90;;;;;;;;;;4935029;29;20047;-76
2022/05/07 06:54:57;;;;;;;7.90;5.80;;;;;;;;;;4936001;29;20040;-76
2022/05/07 06:57:25;;;;;;;8.70;6.07;;;;;;;;;;4919191;29;20054;-76
2022/05/07 06:59:53;;;;;;;10.73;5.43;;;;;;;;;;4936257;29;20383;-78
2022/05/07 07:02:21;;;;;;;8.80;5.50;;;;;;;;;;4935906;29;20039;-77
2022/05/07 07:04:48;;;;;;;9.15;5.70;;;;;;;;;;4936319;29;20387;-76
2022/05/07 07:07:24;;;;;;;9.65;5.45;;;;;;;;;;4935677;29;20139;-75
2022/05/07 07:09:52;;;;;;;9.25;5.75;;;;;;;;;;4935755;29;20062;-76
2022/05/07 07:12:20;;;;;;;10.55;6.30;;;;;;;;;;4936406;29;20046;-78
2022/05/07 07:14:59;;;;;;;10.02;5.68;;;;;;;;;;4934585;29;20423;-78
2022/05/07 07:17:32;;;;;;;8.85;5.35;;;;;;;;;;4915847;29;20052;-78
2022/05/07 07:20:01;;;;;;;8.40;4.60;;;;;;;;;;4916539;29;20051;-75
2022/05/07 07:22:31;;;;;;;11.88;5.88;;;;;;;;;;4917983;29;20052;-76
2022/05/07 07:25:25;;;;;;;8.77;5.25;;;;;;;;;;4917628;29;20503;-73
2022/05/07 07:27:56;;;;;;;9.40;5.38;;;;;;;;;;4915815;29;20066;-73
2022/05/07 07:30:41;;;;;;;8.88;5.43;;;;;;;;;;4931544;29;20111;-71
2022/05/07 07:33:13;;;;;;;8.43;4.97;;;;;;;;;;4931508;29;20048;-73
2022/05/07 07:35:43;;;;;;;6.18;4.70;;;;;;;;;;4913091;29;20033;-72
2022/05/07 07:38:13;;;;;;;9.23;5.13;;;;;;;;;;4906992;29;20040;-73
2022/05/07 07:41:05;;;;;;;9.70;5.35;;;;;;;;;;4917508;29;20040;-73
2022/05/07 07:43:35;;;;;;;9.05;4.85;;;;;;;;;;4916711;29;20100;-72
2022/05/07 07:48:54;;;;;;;6.88;4.20;;;;;;;;;;4902201;29;20124;-73
2022/05/07 07:51:23;;;;;;;7.40;3.95;;;;;;;;;;4902357;29;20044;-73
2022/05/07 07:53:52;;;;;;;7.75;4.68;;;;;;;;;;4900654;29;20143;-72
2022/05/07 07:56:20;;;;;;;7.20;4.05;;;;;;;;;;4908208;29;20040;-72
2022/05/07 07:58:49;;;;;;;6.82;4.32;;;;;;;;;;4921133;29;20044;-73
2022/05/07 08:01:18;;;;;;;14.75;4.65;;;;;;;;;;4920780;29;20080;-72
2022/05/07 08:03:46;;;;;;;9.68;4.18;;;;;;;;;;4920041;29;20052;-72
2022/05/07 08:06:14;;;;;;;8.48;4.40;;;;;;;;;;4917141;29;20048;-73
2022/05/07 08:11:40;;;;;;;6.63;3.75;;;;;;;;;;4919877;29;20059;-72
2022/05/07 08:14:14;;;;;;;8.15;4.60;;;;;;;;;;4920485;29;20036;-72
2022/05/07 08:16:42;;;;;;;11.65;5.18;;;;;;;;;;4922642;29;21757;-73
2022/05/07 08:19:12;;;;;;;9.10;5.05;;;;;;;;;;4940045;29;20067;-73
2022/05/07 08:21:41;;;;;;;12.85;4.72;;;;;;;;;;4937971;29;20511;-72
2022/05/07 08:24:10;;;;;;;6.78;4.22;;;;;;;;;;4939504;29;20044;-72
2022/05/07 08:27:03;;;;;;;7.10;3.85;;;;;;;;;;4939000;29;20115;-72
2022/05/07 08:29:36;;;;;;;9.85;4.22;;;;;;;;;;4939436;29;20103;-72
2022/05/07 08:32:04;;;;;;;6.38;4.18;;;;;;;;;;4938813;29;20551;-72
2022/05/07 08:34:37;;;;;;;5.90;3.97;;;;;;;;;;4939375;29;20195;-72
2022/05/07 08:37:13;;;;;;;6.75;4.45;;;;;;;;;;4939196;29;20533;-72
2022/05/07 08:40:06;;;;;;;10.30;4.20;;;;;;;;;;4938766;29;20058;-73
2022/05/07 08:42:37;;;;;;;8.05;4.63;;;;;;;;;;4939809;29;20127;-72
2022/05/07 08:45:05;;;;;;;24.35;12.38;;;;;;;;;;4938381;29;20086;-71
2022/05/07 08:47:33;;;;;;;10.52;5.28;;;;;;;;;;4938272;29;20395;-72
2022/05/07 08:50:00;;;;;;;8.35;4.38;;;;;;;;;;4938296;29;20087;-71
2022/05/07 08:52:29;;;;;;;19.02;9.70;;;;;;;;;;4938349;29;20438;-72
2022/05/07 08:54:58;;;;;;;8.68;4.78;;;;;;;;;;4938036;29;20052;-72
2022/05/07 08:57:29;;;;;;;7.68;3.97;;;;;;;;;;4937552;29;20072;-72
2022/05/07 08:59:59;;;;;;;7.53;4.38;;;;;;;;;;4938081;29;20079;-81
2022/05/07 09:02:53;;;;;;;6.20;3.63;;;;;;;;;;4938578;29;20106;-81
2022/05/07 09:05:32;;;;;;;8.50;4.05;;;;;;;;;;4938450;29;20094;-79
2022/05/07 09:08:04;;;;;;;6.00;3.60;;;;;;;;;;4938550;29;20058;-80
2022/05/07 09:10:36;;;;;;;8.90;4.00;;;;;;;;;;4937907;29;20043;-77
2022/05/07 09:13:11;;;;;;;5.85;3.67;;;;;;;;;;4938222;29;20047;-77
2022/05/07 09:16:01;;;;;;;6.15;4.13;;;;;;;;;;4938152;29;20079;-77
2022/05/07 09:18:54;;;;;;;5.85;3.67;;;;;;;;;;4938755;29;20094;-78
2022/05/07 09:21:28;;;;;;;8.85;4.15;;;;;;;;;;4940399;29;20071;-77
2022/05/07 09:24:22;;;;;;;6.68;3.97;;;;;;;;;;4942550;29;20455;-78
2022/05/07 09:27:15;;;;;;;10.32;5.80;;;;;;;;;;4938369;29;20052;-77
2022/05/07 09:29:44;;;;;;;6.50;3.97;;;;;;;;;;4938171;29;20406;-78
2022/05/07 09:32:14;;;;;;;9.57;3.95;;;;;;;;;;4938284;29;20046;-77
2022/05/07 09:37:38;;;;;;;7.13;3.80;;;;;;;;;;4938079;29;20091;-78
2022/05/07 09:40:07;;;;;;;8.23;3.90;;;;;;;;;;4937853;29;20098;-79
2022/05/07 09:42:35;;;;;;;6.88;4.18;;;;;;;;;;4937591;29;20069;-77
2022/05/07 09:45:06;;;;;;;7.07;3.90;;;;;;;;;;4937351;29;20080;-78
2022/05/07 09:47:34;;;;;;;9.32;3.35;;;;;;;;;;4937522;29;20074;-78
2022/05/07 09:58:54;;;;;;;8.57;4.32;;;;;;;;;;4937840;29;20075;-78
2022/05/07 10:01:42;;;;;;;8.45;4.45;;;;;;;;;;4937480;29;20040;-78
2022/05/07 10:04:16;;;;;;;7.35;3.42;;;;;;;;;;4937897;29;20050;-77
2022/05/07 10:07:03;;;;;;;6.40;4.60;;;;;;;;;;4937581;29;20110;-78
2022/05/07 10:09:39;;;;;;;8.15;3.42;;;;;;;;;;4936945;29;20400;-78
2022/05/07 10:12:13;;;;;;;7.43;3.95;;;;;;;;;;4937331;29;20506;-79
2022/05/07 10:14:42;;;;;;;8.60;3.75;;;;;;;;;;4932948;29;20047;-79
2022/05/07 10:17:11;;;;;;;7.65;3.42;;;;;;;;;;4932358;29;20151;-77
2022/05/07 10:19:43;;;;;;;6.80;3.80;;;;;;;;;;4926198;29;20055;-77
2022/05/07 10:22:17;;;;;;;6.10;3.80;;;;;;;;;;4932493;29;20127;-77
2022/05/07 10:24:45;;;;;;;5.47;3.13;;;;;;;;;;4931594;29;20039;-78
2022/05/07 10:27:25;;;;;;;7.90;3.70;;;;;;;;;;4933164;29;20048;-78
2022/05/07 10:30:02;;;;;;;8.93;5.15;;;;;;;;;;4923974;29;20099;-78
2022/05/07 10:32:44;;;;;;;8.25;4.10;;;;;;;;;;4917841;29;20048;-77
2022/05/07 10:35:38;;;;;;;7.50;3.80;;;;;;;;;;4918157;29;20064;-78
2022/05/07 10:38:15;;;;;;;5.93;3.47;;;;;;;;;;4924799;29;20127;-77
2022/05/07 10:40:54;;;;;;;6.55;3.88;;;;;;;;;;4920732;29;20052;-78
2022/05/07 10:43:37;;;;;;;9.60;4.30;;;;;;;;;;4933466;29;20103;-79
2022/05/07 10:49:23;;;;;;;9.80;4.00;;;;;;;;;;4933795;29;20451;-78
2022/05/07 10:51:53;;;;;;;;;;;;;;;;;;4932214;29;20474;-78
2022/05/07 10:54:24;;;;;;;5.43;3.78;;;;;;;;;;4932723;29;19922;-77
2022/05/07 10:56:53;;;;;;;9.68;3.70;;;;;;;;;;4930615;29;20416;-78
2022/05/07 10:59:21;;;;;;;5.63;3.70;;;;;;;;;;4918344;29;20395;-80
2022/05/07 11:01:50;;;;;;;7.15;3.38;;;;;;;;;;4936488;29;20067;-79
2022/05/07 11:04:19;;;;;;;10.60;3.83;;;;;;;;;;4934337;29;20068;-79
2022/05/07 11:06:53;;;;;;;6.47;3.50;;;;;;;;;;4936852;29;20044;-80
2022/05/07 11:09:46;;;;;;;7.72;3.88;;;;;;;;;;4939276;29;20075;-80
2022/05/07 11:12:17;;;;;;;6.97;3.58;;;;;;;;;;4940882;29;20054;-78
2022/05/07 11:14:48;;;;;;;8.88;4.03;;;;;;;;;;4936984;29;20513;-78
2022/05/07 11:17:17;;;;;;;5.57;2.75;;;;;;;;;;4918323;29;20051;-80
2022/05/07 11:23:04;;;;;;;5.97;3.10;;;;;;;;;;4936871;29;20058;-77
2022/05/07 11:25:32;;;;;;;5.63;2.78;;;;;;;;;;4922229;29;20056;-81
2022/05/07 11:28:11;;;;;;;6.60;3.10;;;;;;;;;;4916906;29;20510;-80
2022/05/07 11:31:04;;;;;;;4.28;2.83;;;;;;;;;;4917731;29;20051;-76
2022/05/07 11:33:38;;;;;;;5.95;3.63;;;;;;;;;;4917299;29;20048;-77
2022/05/07 11:36:08;;;;;;;5.45;3.90;;;;;;;;;;4926471;29;20044;-81
2022/05/07 11:38:40;;;;;;;6.60;3.63;;;;;;;;;;4923068;29;20040;-79
2022/05/07 11:41:12;;;;;;;5.25;3.00;;;;;;;;;;4933204;29;20060;-78
2022/05/07 11:47:00;;;;;;;6.50;4.22;;;;;;;;;;4935415;29;20143;-79
2022/05/07 11:49:33;;;;;;;7.93;3.10;;;;;;;;;;4935574;29;20047;-78
2022/05/07 11:52:26;;;;;;;8.57;2.72;;;;;;;;;;4935667;29;20051;-77
2022/05/07 11:55:03;;;;;;;4.88;2.63;;;;;;;;;;4935982;29;20052;-77
2022/05/07 11:57:31;;;;;;;7.78;4.18;;;;;;;;;;4935600;29;20044;-78
2022/05/07 12:00:11;;;;;;;5.65;2.80;;;;;;;;;;4935821;29;20055;-78
2022/05/07 12:02:48;;;;;;;6.10;3.22;;;;;;;;;;4935694;29;20418;-78
2022/05/07 12:05:18;;;;;;;5.72;2.97;;;;;;;;;;4935668;29;20083;-76
2022/05/07 12:07:49;;;;;;;6.63;2.58;;;;;;;;;;4935257;29;20443;-76
2022/05/07 12:10:22;;;;;;;4.82;2.50;;;;;;;;;;4934433;29;20052;-78
2022/05/07 12:12:52;;;;;;;5.55;2.72;;;;;;;;;;4924998;29;20096;-78
2022/05/07 12:17:52;;;;;;;4.50;2.70;;;;;;;;;;4916472;29;20044;-79
2022/05/07 12:18:09;;;;;;;3.72;2.50;;;;;;;;;;4915724;29;20128;-78
2022/05/07 12:20:40;;;;;;;7.63;2.70;;;;;;;;;;4916878;29;20135;-79
2022/05/07 12:31:53;;;;;;;5.82;3.03;;;;;;;;;;4916761;29;20103;-79
2022/05/07 12:34:38;;;;;;;5.55;2.83;;;;;;;;;;4920239;29;20040;-79
2022/05/07 12:37:11;;;;;;;4.70;3.10;;;;;;;;;;4920694;29;20040;-79
2022/05/07 12:39:42;;;;;;;7.90;3.28;;;;;;;;;;4920159;29;20067;-81
2022/05/07 12:42:44;;;;;;;4.20;2.50;;;;;;;;;;4920161;29;20052;-78
2022/05/07 12:45:37;;;;;;;6.88;3.42;;;;;;;;;;4920336;29;20104;-78
2022/05/07 12:48:10;;;;;;;10.85;3.42;;;;;;;;;;4920565;29;20040;-80
2022/05/07 12:50:52;;;;;;;9.55;3.67;;;;;;;;;;4920641;29;20510;-80
2022/05/07 12:53:21;;;;;;;5.72;3.20;;;;;;;;;;4921009;29;20044;-80
2022/05/07 12:55:56;;;;;;;7.80;3.55;;;;;;;;;;4920199;29;20040;-81
2022/05/07 12:58:59;;;;;;;19.40;11.95;;;;;;;;;;4920364;29;20048;-81
2022/05/07 13:01:52;;;;;;;7.50;3.67;;;;;;;;;;4923145;29;20099;-79
2022/05/07 13:04:26;;;;;;;7.57;4.30;;;;;;;;;;4925912;29;20455;-80
2022/05/07 13:06:59;;;;;;;6.60;3.25;;;;;;;;;;4922477;29;20169;-79
2022/05/07 13:09:33;;;;;;;8.82;3.28;;;;;;;;;;4920472;29;20091;-80
2022/05/07 13:12:18;;;;;;;9.48;3.60;;;;;;;;;;4919635;29;20500;-80
2022/05/07 13:14:57;;;;;;;7.10;3.22;;;;;;;;;;4919792;29;20044;-80
2022/05/07 13:17:25;;;;;;;4.88;3.25;;;;;;;;;;4918957;29;20075;-79
2022/05/07 13:20:18;;;;;;;5.13;3.05;;;;;;;;;;4902999;29;20052;-79
2022/05/07 13:26:09;;;;;;;5.50;3.30;;;;;;;;;;4923473;29;20104;-79
2022/05/07 13:28:39;;;;;;;7.72;5.35;;;;;;;;;;4919197;29;20040;-79
2022/05/07 13:31:14;;;;;;;10.10;6.68;;;;;;;;;;4918980;29;20095;-78
2022/05/07 13:33:47;;;;;;;8.40;5.25;;;;;;;;;;4919269;29;20048;-78
2022/05/07 13:36:40;;;;;;;6.85;3.20;;;;;;;;;;4919338;29;20051;-78
2022/05/07 13:39:08;;;;;;;8.38;4.72;;;;;;;;;;4919437;29;20427;-78
2022/05/07 13:41:37;;;;;;;10.90;6.75;;;;;;;;;;4919084;29;20048;-79
2022/05/07 13:44:13;;;;;;;10.10;8.18;;;;;;;;;;4919482;29;20048;-77
2022/05/07 13:46:44;;;;;;;33.58;22.48;;;;;;;;;;4919391;29;20448;-79
2022/05/07 13:49:14;;;;;;;7.47;4.10;;;;;;;;;;4919035;29;20036;-77
2022/05/07 13:51:43;;;;;;;8.20;3.28;;;;;;;;;;4902155;29;20040;-77
2022/05/07 13:54:17;;;;;;;9.88;5.68;;;;;;;;;;4919330;29;20123;-78
2022/05/07 13:56:46;;;;;;;8.80;6.75;;;;;;;;;;4918774;29;20044;-77
2022/05/07 13:59:18;;;;;;;11.27;7.00;;;;;;;;;;4918893;29;20044;-78
2022/05/07 14:02:01;;;;;;;14.05;10.70;;;;;;;;;;4919017;29;20052;-78
2022/05/07 14:04:33;;;;;;;5.82;3.40;;;;;;;;;;4918682;29;20388;-78
2022/05/07 14:07:06;;;;;;;7.95;3.05;;;;;;;;;;4918351;29;20040;-78
2022/05/07 14:09:34;;;;;;;4.95;2.60;;;;;;;;;;4919055;29;20084;-78
2022/05/07 14:12:18;;;;;;;6.22;3.33;;;;;;;;;;4919662;29;20064;-77
2022/05/07 14:14:47;;;;;;;6.22;3.40;;;;;;;;;;4918672;29;20039;-79
2022/05/07 14:17:15;;;;;;;8.40;5.38;;;;;;;;;;4917733;29;20537;-77
2022/05/07 14:20:07;;;;;;;9.32;4.63;;;;;;;;;;4917520;29;20068;-78
2022/05/07 14:22:41;;;;;;;14.30;6.15;;;;;;;;;;4917862;29;20099;-79
2022/05/07 14:25:17;;;;;;;6.68;2.95;;;;;;;;;;4917402;29;20059;-79
2022/05/07 14:27:45;;;;;;;11.13;4.05;;;;;;;;;;4917285;29;20063;-78
2022/05/07 14:30:18;;;;;;;7.15;3.92;;;;;;;;;;4917589;29;20059;-78
2022/05/07 14:32:45;;;;;;;21.83;7.72;;;;;;;;;;4900439;29;20044;-78
2022/05/07 14:35:18;;;;;;;6.68;3.53;;;;;;;;;;4917396;29;20051;-79
2022/05/07 14:37:49;;;;;;;10.43;3.78;;;;;;;;;;4917327;29;20444;-79
2022/05/07 14:40:29;;;;;;;8.80;5.45;;;;;;;;;;4917172;29;20099;-79
2022/05/07 14:43:01;;;;;;;9.02;4.55;;;;;;;;;;4899871;29;20123;-78
2022/05/07 14:45:36;;;;;;;7.90;4.03;;;;;;;;;;4917350;29;20157;-79
2022/05/07 14:48:05;;;;;;;6.07;3.10;;;;;;;;;;4917330;29;20127;-78
2022/05/07 14:50:57;;;;;;;5.13;2.90;;;;;;;;;;4916965;29;20054;-79
2022/05/07 14:53:50;;;;;;;5.97;3.47;;;;;;;;;;4900594;29;20044;-79
2022/05/07 14:56:18;;;;;;;5.68;2.55;;;;;;;;;;4918511;29;20036;-78
2022/05/07 14:58:52;;;;;;;4.15;3.00;;;;;;;;;;4917430;29;20127;-78
2022/05/07 15:01:21;;;;;;;8.30;4.20;;;;;;;;;;4917191;29;20052;-79
2022/05/07 15:03:54;;;;;;;8.35;3.90;;;;;;;;;;4916875;29;20054;-79
2022/05/07 15:06:26;;;;;;;7.68;3.60;;;;;;;;;;4916974;29;20056;-78
2022/05/07 15:11:43;;;;;;;5.05;2.90;;;;;;;;;;4916342;29;20076;-78
2022/05/07 15:14:14;;;;;;;4.00;2.53;;;;;;;;;;4916489;29;20048;-79
2022/05/07 15:16:44;;;;;;;6.90;2.77;;;;;;;;;;4873663;29;1229473;-79
2022/05/07 15:19:13;;;;;;;4.40;2.50;;;;;;;;;;4917751;29;20475;-79
2022/05/07 15:21:43;;;;;;;6.25;2.60;;;;;;;;;;4917425;29;20107;-79
2022/05/07 15:24:17;;;;;;;5.72;2.92;;;;;;;;;;4917446;29;20051;-79
2022/05/07 15:26:46;;;;;;;8.70;2.50;;;;;;;;;;4917135;29;20051;-77
2022/05/07 15:29:16;;;;;;;6.57;2.75;;;;;;;;;;4916953;29;20036;-78
2022/05/07 15:37:24;;;;;;;4.15;2.40;;;;;;;;;;4916970;29;20122;-80
2022/05/07 15:39:53;;;;;;;7.30;2.70;;;;;;;;;;4917557;29;20048;-78
2022/05/07 15:42:47;;;;;;;4.95;2.63;;;;;;;;;;4917135;29;20047;-79
2022/05/07 15:45:23;;;;;;;5.97;2.30;;;;;;;;;;4917157;29;20044;-78
2022/05/07 15:47:50;;;;;;;7.70;2.60;;;;;;;;;;4900747;29;20079;-78
2022/05/07 15:50:21;;;;;;;7.05;3.00;;;;;;;;;;4916907;29;20054;-77
2022/05/07 15:52:54;;;;;;;8.40;2.97;;;;;;;;;;4917051;29;20191;-79
2022/05/07 15:55:23;;;;;;;11.57;2.90;;;;;;;;;;4899961;29;20056;-79
2022/05/07 15:57:52;;;;;;;3.67;2.60;;;;;;;;;;4916705;29;20048;-78
2022/05/07 16:00:20;;;;;;;9.80;3.97;;;;;;;;;;4925798;29;20458;-79
2022/05/07 16:03:04;;;;;;;11.63;3.42;;;;;;;;;;4935650;29;20048;-78
2022/05/07 16:05:31;;;;;;;9.20;3.13;;;;;;;;;;4935764;29;20517;-79
2022/05/07 16:08:18;;;;;;;8.63;4.20;;;;;;;;;;4938435;29;20040;-77
2022/05/07 16:10:45;;;;;;;6.68;2.63;;;;;;;;;;4940995;29;20380;-80
2022/05/07 16:13:18;;;;;;;8.82;3.03;;;;;;;;;;4938932;29;20040;-79
2022/05/07 16:15:49;;;;;;;8.45;2.97;;;;;;;;;;4923765;29;20037;-80
2022/05/07 16:18:16;;;;;;;5.60;2.80;;;;;;;;;;4920218;29;20052;-79
2022/05/07 16:20:46;;;;;;;7.30;2.95;;;;;;;;;;4920480;29;20486;-80
2022/05/07 16:26:29;;;;;;;7.45;3.35;;;;;;;;;;4920551;29;20075;-76
2022/05/07 16:28:57;;;;;;;6.90;3.30;;;;;;;;;;4920745;29;20467;-77
2022/05/07 16:31:25;;;;;;;5.50;3.33;;;;;;;;;;4937002;29;20118;-78
2022/05/07 16:34:00;;;;;;;7.53;3.13;;;;;;;;;;4938824;29;20095;-77